sensor_id;sensor_type;location;lat;lon;timestamp;pressure;altitude;pressure_sealevel;temperature;humidity
58690;BME280;44470;53.206;-6.106;2023-05-21T00:02:02;102510.38;;;19.51;60.41
58690;BME280;44470;53.206;-6.106;2023-05-21T00:04:29;102501.47;;;19.52;60.61
58690;BME280;44470;53.206;-6.106;2023-05-21T00:06:58;102479.09;;;19.41;60.49
58690;BME280;44470;53.206;-6.106;2023-05-21T00:09:24;102505.06;;;19.53;60.67
58690;BME280;44470;53.206;-6.106;2023-05-21T00:11:49;102501.47;;;19.52;60.33
58690;BME280;44470;53.206;-6.106;2023-05-21T00:14:15;102505.03;;;19.51;60.39
58690;BME280;44470;53.206;-6.106;2023-05-21T00:16:41;102486.28;;;19.45;60.58
58690;BME280;44470;53.206;-6.106;2023-05-21T00:19:06;102502.34;;;19.51;60.50
58690;BME280;44470;53.206;-6.106;2023-05-21T00:21:32;102505.94;;;19.53;60.31
58690;BME280;44470;53.206;-6.106;2023-05-21T00:23:58;102486.28;;;19.48;60.42
58690;BME280;44470;53.206;-6.106;2023-05-21T00:26:23;102499.72;;;19.54;60.34
58690;BME280;44470;53.206;-6.106;2023-05-21T00:28:52;102502.38;;;19.54;60.54
58690;BME280;44470;53.206;-6.106;2023-05-21T00:31:18;102484.50;;;19.45;60.41
58690;BME280;44470;53.206;-6.106;2023-05-21T00:33:43;102503.28;;;19.55;60.63
58690;BME280;44470;53.206;-6.106;2023-05-21T00:36:09;102497.91;;;19.53;60.39
58690;BME280;44470;53.206;-6.106;2023-05-21T00:38:39;102505.97;;;19.55;60.45
58690;BME280;44470;53.206;-6.106;2023-05-21T00:41:11;102493.47;;;19.52;60.44
58690;BME280;44470;53.206;-6.106;2023-05-21T00:43:37;102481.00;;;19.50;60.46
58690;BME280;44470;53.206;-6.106;2023-05-21T00:46:07;102483.66;;;19.51;60.54
58690;BME280;44470;53.206;-6.106;2023-05-21T00:48:36;102465.78;;;19.44;60.51
58690;BME280;44470;53.206;-6.106;2023-05-21T00:51:03;102478.34;;;19.54;60.44
58690;BME280;44470;53.206;-6.106;2023-05-21T00:53:29;102474.78;;;19.55;60.37
58690;BME280;44470;53.206;-6.106;2023-05-21T00:55:56;102481.03;;;19.56;60.33
58690;BME280;44470;53.206;-6.106;2023-05-21T00:58:22;102471.22;;;19.53;60.24
58690;BME280;44470;53.206;-6.106;2023-05-21T01:00:47;102474.78;;;19.55;60.51
58690;BME280;44470;53.206;-6.106;2023-05-21T01:03:13;102462.28;;;19.50;60.62
58690;BME280;44470;53.206;-6.106;2023-05-21T01:05:41;102467.66;;;19.54;60.60
58690;BME280;44470;53.206;-6.106;2023-05-21T01:08:09;102473.94;;;19.58;60.54
58690;BME280;44470;53.206;-6.106;2023-05-21T01:10:35;102464.09;;;19.55;60.61
58690;BME280;44470;53.206;-6.106;2023-05-21T01:13:01;102443.56;;;19.48;60.39
58690;BME280;44470;53.206;-6.106;2023-05-21T01:15:26;102471.25;;;19.59;60.30
58690;BME280;44470;53.206;-6.106;2023-05-21T01:17:53;102473.94;;;19.59;60.69
58690;BME280;44470;53.206;-6.106;2023-05-21T01:20:20;102476.59;;;19.59;60.49
58690;BME280;44470;53.206;-6.106;2023-05-21T01:22:52;102475.69;;;19.57;60.61
58690;BME280;44470;53.206;-6.106;2023-05-21T01:25:17;102465.91;;;19.59;60.74
58690;BME280;44470;53.206;-6.106;2023-05-21T01:27:43;102454.31;;;19.53;60.35
58690;BME280;44470;53.206;-6.106;2023-05-21T01:30:09;102456.16;;;19.60;60.38
58690;BME280;44470;53.206;-6.106;2023-05-21T01:32:55;102464.16;;;19.60;60.46
58690;BME280;44470;53.206;-6.106;2023-05-21T01:35:28;102460.59;;;19.59;60.46
58690;BME280;44470;53.206;-6.106;2023-05-21T01:38:22;102461.50;;;19.61;60.87
58690;BME280;44470;53.206;-6.106;2023-05-21T01:41:00;102457.91;;;19.59;60.78
58690;BME280;44470;53.206;-6.106;2023-05-21T01:43:31;102458.81;;;19.60;60.50
58690;BME280;44470;53.206;-6.106;2023-05-21T01:45:58;102451.69;;;19.60;60.85
58690;BME280;44470;53.206;-6.106;2023-05-21T01:48:27;102451.69;;;19.59;60.68
58690;BME280;44470;53.206;-6.106;2023-05-21T01:50:54;102451.66;;;19.57;60.87
58690;BME280;44470;53.206;-6.106;2023-05-21T01:53:21;102452.59;;;19.61;60.71
58690;BME280;44470;53.206;-6.106;2023-05-21T01:55:47;102440.97;;;19.57;60.87
58690;BME280;44470;53.206;-6.106;2023-05-21T01:58:13;102454.38;;;19.62;60.68
58690;BME280;44470;53.206;-6.106;2023-05-21T02:00:43;102448.13;;;19.61;60.75
58690;BME280;44470;53.206;-6.106;2023-05-21T02:03:10;102449.94;;;19.61;60.81
58690;BME280;44470;53.206;-6.106;2023-05-21T02:05:36;102455.28;;;19.64;60.67
58690;BME280;44470;53.206;-6.106;2023-05-21T02:08:02;102451.72;;;19.62;60.49
58690;BME280;44470;53.206;-6.106;2023-05-21T02:10:28;102435.63;;;19.56;60.52
58690;BME280;44470;53.206;-6.106;2023-05-21T02:12:53;102441.03;;;19.62;60.79
58690;BME280;44470;53.206;-6.106;2023-05-21T02:15:19;102443.69;;;19.59;60.58
58690;BME280;44470;53.206;-6.106;2023-05-21T02:17:45;102448.13;;;19.61;60.65
58690;BME280;44470;53.206;-6.106;2023-05-21T02:20:11;102435.63;;;19.57;60.47
58690;BME280;44470;53.206;-6.106;2023-05-21T02:22:39;102444.63;;;19.66;60.63
58690;BME280;44470;53.206;-6.106;2023-05-21T02:25:06;102449.06;;;19.65;60.84
58690;BME280;44470;53.206;-6.106;2023-05-21T02:27:32;102441.94;;;19.63;60.61
58690;BME280;44470;53.206;-6.106;2023-05-21T02:30:00;102430.38;;;19.64;60.41
58690;BME280;44470;53.206;-6.106;2023-05-21T02:32:25;102441.94;;;19.63;60.74
58690;BME280;44470;53.206;-6.106;2023-05-21T02:34:51;102435.66;;;19.60;60.50
58690;BME280;44470;53.206;-6.106;2023-05-21T02:37:18;102457.09;;;19.67;60.42
58690;BME280;44470;53.206;-6.106;2023-05-21T02:39:43;102453.56;;;19.68;60.45
58690;BME280;44470;53.206;-6.106;2023-05-21T02:42:09;102441.94;;;19.64;60.82
58690;BME280;44470;53.206;-6.106;2023-05-21T02:47:42;102441.09;;;19.67;60.77
58690;BME280;44470;53.206;-6.106;2023-05-21T02:50:08;102450.84;;;19.66;60.56
58690;BME280;44470;53.206;-6.106;2023-05-21T02:52:40;102447.31;;;19.67;60.45
58690;BME280;44470;53.206;-6.106;2023-05-21T02:55:06;102447.28;;;19.64;60.67
58690;BME280;44470;53.206;-6.106;2023-05-21T02:57:32;102443.66;;;19.60;60.50
58690;BME280;44470;53.206;-6.106;2023-05-21T02:59:57;102447.31;;;19.66;60.41
58690;BME280;44470;53.206;-6.106;2023-05-21T03:02:23;102449.09;;;19.68;60.67
58690;BME280;44470;53.206;-6.106;2023-05-21T03:04:48;102429.41;;;19.58;60.32
58690;BME280;44470;53.206;-6.106;2023-05-21T03:07:16;102434.84;;;19.68;60.76
58690;BME280;44470;53.206;-6.106;2023-05-21T03:09:44;102437.53;;;19.68;60.82
58690;BME280;44470;53.206;-6.106;2023-05-21T03:12:09;102433.97;;;19.69;60.71
58690;BME280;44470;53.206;-6.106;2023-05-21T03:14:35;102435.75;;;19.70;60.36
58690;BME280;44470;53.206;-6.106;2023-05-21T03:17:01;102438.41;;;19.68;60.80
58690;BME280;44470;53.206;-6.106;2023-05-21T03:19:31;102436.63;;;19.67;60.58
58690;BME280;44470;53.206;-6.106;2023-05-21T03:22:01;102431.31;;;19.69;60.51
58690;BME280;44470;53.206;-6.106;2023-05-21T03:24:28;102429.50;;;19.68;60.71
58690;BME280;44470;53.206;-6.106;2023-05-21T03:26:55;102436.66;;;19.70;60.92
58690;BME280;44470;53.206;-6.106;2023-05-21T03:29:21;102432.22;;;19.71;60.61
58690;BME280;44470;53.206;-6.106;2023-05-21T03:31:47;102426.88;;;19.71;60.31
58690;BME280;44470;53.206;-6.106;2023-05-21T03:34:13;102428.66;;;19.72;60.76
58690;BME280;44470;53.206;-6.106;2023-05-21T03:36:39;102408.94;;;19.60;60.42
58690;BME280;44470;53.206;-6.106;2023-05-21T03:39:05;102429.53;;;19.72;60.78
58690;BME280;44470;53.206;-6.106;2023-05-21T03:41:32;102426.84;;;19.68;60.86
58690;BME280;44470;53.206;-6.106;2023-05-21T03:44:10;102424.19;;;19.71;60.68
58690;BME280;44470;53.206;-6.106;2023-05-21T03:46:46;102428.66;;;19.72;60.58
58690;BME280;44470;53.206;-6.106;2023-05-21T03:49:24;102431.31;;;19.72;60.59
58690;BME280;44470;53.206;-6.106;2023-05-21T03:51:52;102423.28;;;19.69;60.52
58690;BME280;44470;53.206;-6.106;2023-05-21T03:54:19;102423.31;;;19.72;60.52
58690;BME280;44470;53.206;-6.106;2023-05-21T03:56:45;102419.75;;;19.70;60.54
58690;BME280;44470;53.206;-6.106;2023-05-21T03:59:10;102410.81;;;19.69;60.16
58690;BME280;44470;53.206;-6.106;2023-05-21T04:01:36;102420.63;;;19.72;60.66
58690;BME280;44470;53.206;-6.106;2023-05-21T04:04:04;102413.50;;;19.72;60.46
58690;BME280;44470;53.206;-6.106;2023-05-21T04:06:30;102415.31;;;19.72;60.65
58690;BME280;44470;53.206;-6.106;2023-05-21T04:08:56;102410.88;;;19.74;60.43
58690;BME280;44470;53.206;-6.106;2023-05-21T04:11:21;102410.84;;;19.72;60.56
58690;BME280;44470;53.206;-6.106;2023-05-21T04:13:46;102423.34;;;19.75;60.31
58690;BME280;44470;53.206;-6.106;2023-05-21T04:16:12;102414.41;;;19.70;60.43
58690;BME280;44470;53.206;-6.106;2023-05-21T04:18:39;102424.22;;;19.74;60.29
58690;BME280;44470;53.206;-6.106;2023-05-21T04:21:06;102419.75;;;19.73;60.24
58690;BME280;44470;53.206;-6.106;2023-05-21T04:23:32;102421.53;;;19.74;60.43
58690;BME280;44470;53.206;-6.106;2023-05-21T04:26:00;102401.00;;;19.64;60.42
58690;BME280;44470;53.206;-6.106;2023-05-21T04:28:27;102423.34;;;19.75;60.10
58690;BME280;44470;53.206;-6.106;2023-05-21T04:30:54;102430.47;;;19.76;60.54
58690;BME280;44470;53.206;-6.106;2023-05-21T04:33:21;102418.00;;;19.75;60.02
58690;BME280;44470;53.206;-6.106;2023-05-21T04:35:49;102414.41;;;19.74;60.18
58690;BME280;44470;53.206;-6.106;2023-05-21T04:38:16;102412.63;;;19.72;60.27
58690;BME280;44470;53.206;-6.106;2023-05-21T04:40:48;102417.97;;;19.77;60.39
58690;BME280;44470;53.206;-6.106;2023-05-21T04:43:17;102421.56;;;19.77;60.40
58690;BME280;44470;53.206;-6.106;2023-05-21T04:45:50;102414.44;;;19.76;60.39
58690;BME280;44470;53.206;-6.106;2023-05-21T04:48:17;102401.03;;;19.71;60.35
58690;BME280;44470;53.206;-6.106;2023-05-21T04:50:43;102404.63;;;19.75;60.06
58690;BME280;44470;53.206;-6.106;2023-05-21T04:53:08;102412.66;;;19.78;60.21
58690;BME280;44470;53.206;-6.106;2023-05-21T04:55:34;102408.22;;;19.77;60.04
58690;BME280;44470;53.206;-6.106;2023-05-21T04:58:07;102410.88;;;19.77;60.14
58690;BME280;44470;53.206;-6.106;2023-05-21T05:00:36;102410.00;;;19.78;60.36
58690;BME280;44470;53.206;-6.106;2023-05-21T05:03:03;102406.41;;;19.74;60.11
58690;BME280;44470;53.206;-6.106;2023-05-21T05:05:29;102394.81;;;19.71;60.24
58690;BME280;44470;53.206;-6.106;2023-05-21T05:07:55;102409.13;;;19.79;60.13
58690;BME280;44470;53.206;-6.106;2023-05-21T05:10:22;102392.13;;;19.71;60.17
58690;BME280;44470;53.206;-6.106;2023-05-21T05:12:48;102410.88;;;19.79;60.21
58690;BME280;44470;53.206;-6.106;2023-05-21T05:15:13;102403.78;;;19.79;60.12
58690;BME280;44470;53.206;-6.106;2023-05-21T05:17:39;102403.78;;;19.79;59.90
58690;BME280;44470;53.206;-6.106;2023-05-21T05:20:06;102403.78;;;19.79;60.14
58690;BME280;44470;53.206;-6.106;2023-05-21T05:22:32;102401.09;;;19.79;60.08
58690;BME280;44470;53.206;-6.106;2023-05-21T05:24:58;102399.31;;;19.80;59.84
58690;BME280;44470;53.206;-6.106;2023-05-21T05:27:23;102405.56;;;19.80;59.84
58690;BME280;44470;53.206;-6.106;2023-05-21T05:29:49;102401.97;;;19.78;59.96
58690;BME280;44470;53.206;-6.106;2023-05-21T05:32:14;102399.31;;;19.80;59.94
58690;BME280;44470;53.206;-6.106;2023-05-21T05:34:40;102401.97;;;19.78;59.87
58690;BME280;44470;53.206;-6.106;2023-05-21T05:37:07;102403.75;;;19.81;59.97
58690;BME280;44470;53.206;-6.106;2023-05-21T05:39:32;102411.81;;;19.82;59.87
58690;BME280;44470;53.206;-6.106;2023-05-21T05:41:58;102390.38;;;19.73;60.27
58690;BME280;44470;53.206;-6.106;2023-05-21T05:44:24;102390.34;;;19.70;60.15
58690;BME280;44470;53.206;-6.106;2023-05-21T05:46:50;102392.16;;;19.74;59.90
58690;BME280;44470;53.206;-6.106;2023-05-21T05:49:16;102391.25;;;19.72;60.14
58690;BME280;44470;53.206;-6.106;2023-05-21T05:51:41;102404.66;;;19.83;59.91
58690;BME280;44470;53.206;-6.106;2023-05-21T05:54:07;102406.47;;;19.84;60.12
58690;BME280;44470;53.206;-6.106;2023-05-21T05:56:34;102406.47;;;19.82;60.04
58690;BME280;44470;53.206;-6.106;2023-05-21T05:58:59;102404.66;;;19.83;59.75
58690;BME280;44470;53.206;-6.106;2023-05-21T06:01:25;102400.22;;;19.80;59.93
58690;BME280;44470;53.206;-6.106;2023-05-21T06:03:51;102401.97;;;19.78;59.98
58690;BME280;44470;53.206;-6.106;2023-05-21T06:06:17;102400.19;;;19.77;59.97
58690;BME280;44470;53.206;-6.106;2023-05-21T06:08:43;102403.78;;;19.79;59.85
58690;BME280;44470;53.206;-6.106;2023-05-21T06:11:10;102414.50;;;19.85;59.77
58690;BME280;44470;53.206;-6.106;2023-05-21T06:13:36;102409.16;;;19.85;60.07
58690;BME280;44470;53.206;-6.106;2023-05-21T06:16:03;102400.19;;;19.77;59.64
58690;BME280;44470;53.206;-6.106;2023-05-21T06:18:29;102417.16;;;19.82;60.07
58690;BME280;44470;53.206;-6.106;2023-05-21T06:20:54;102419.84;;;19.85;59.77
58690;BME280;44470;53.206;-6.106;2023-05-21T06:23:21;102416.25;;;19.83;60.24
58690;BME280;44470;53.206;-6.106;2023-05-21T06:25:47;102418.03;;;19.83;59.53
58690;BME280;44470;53.206;-6.106;2023-05-21T06:28:13;102426.97;;;19.86;59.93
58690;BME280;44470;53.206;-6.106;2023-05-21T06:30:38;102429.66;;;19.86;60.02
58690;BME280;44470;53.206;-6.106;2023-05-21T06:33:04;102417.16;;;19.84;59.56
58690;BME280;44470;53.206;-6.106;2023-05-21T06:35:30;102418.03;;;19.81;59.59
58690;BME280;44470;53.206;-6.106;2023-05-21T06:37:57;102432.31;;;19.86;59.79
58690;BME280;44470;53.206;-6.106;2023-05-21T06:40:23;102422.47;;;19.79;59.96
58690;BME280;44470;53.206;-6.106;2023-05-21T06:42:52;102438.53;;;19.87;59.78
58690;BME280;44470;53.206;-6.106;2023-05-21T06:45:36;102434.09;;;19.84;59.97
58690;BME280;44470;53.206;-6.106;2023-05-21T06:48:12;102424.25;;;19.80;59.82
58690;BME280;44470;53.206;-6.106;2023-05-21T06:50:40;102441.22;;;19.87;59.94
58690;BME280;44470;53.206;-6.106;2023-05-21T06:53:06;102439.44;;;19.87;59.79
58690;BME280;44470;53.206;-6.106;2023-05-21T06:55:31;102421.59;;;19.80;59.94
58690;BME280;44470;53.206;-6.106;2023-05-21T06:58:17;102428.72;;;19.81;60.00
58690;BME280;44470;53.206;-6.106;2023-05-21T07:00:42;102451.94;;;19.88;59.98
58690;BME280;44470;53.206;-6.106;2023-05-21T07:03:08;102438.56;;;19.88;60.13
58690;BME280;44470;53.206;-6.106;2023-05-21T07:05:34;102443.97;;;19.90;60.25
58690;BME280;44470;53.206;-6.106;2023-05-21T07:08:00;102427.84;;;19.82;60.10
58690;BME280;44470;53.206;-6.106;2023-05-21T07:10:26;102445.66;;;19.88;59.92
58690;BME280;44470;53.206;-6.106;2023-05-21T07:12:51;102443.91;;;19.88;60.20
58690;BME280;44470;53.206;-6.106;2023-05-21T07:15:17;102444.81;;;19.89;60.04
58690;BME280;44470;53.206;-6.106;2023-05-21T07:17:43;102449.31;;;19.90;60.12
58690;BME280;44470;53.206;-6.106;2023-05-21T07:20:09;102453.78;;;19.93;59.90
58690;BME280;44470;53.206;-6.106;2023-05-21T07:22:38;102453.81;;;19.94;60.22
58690;BME280;44470;53.206;-6.106;2023-05-21T07:25:05;102458.22;;;19.94;60.07
58690;BME280;44470;53.206;-6.106;2023-05-21T07:27:31;102456.44;;;19.93;60.09
58690;BME280;44470;53.206;-6.106;2023-05-21T07:29:58;102450.22;;;19.94;60.54
58690;BME280;44470;53.206;-6.106;2023-05-21T07:32:23;102438.53;;;19.84;60.11
58690;BME280;44470;53.206;-6.106;2023-05-21T07:34:50;102447.53;;;19.94;59.55
58690;BME280;44470;53.206;-6.106;2023-05-21T07:37:17;102452.88;;;19.94;59.94
58690;BME280;44470;53.206;-6.106;2023-05-21T07:39:43;102462.69;;;19.95;59.27
58690;BME280;44470;53.206;-6.106;2023-05-21T07:42:10;102456.47;;;19.96;59.46
58690;BME280;44470;53.206;-6.106;2023-05-21T07:44:36;102449.25;;;19.88;59.54
58690;BME280;44470;53.206;-6.106;2023-05-21T07:47:01;102451.94;;;19.88;59.58
58690;BME280;44470;53.206;-6.106;2023-05-21T07:49:27;102460.94;;;19.95;59.21
58690;BME280;44470;53.206;-6.106;2023-05-21T07:51:53;102460.06;;;19.96;59.43
58690;BME280;44470;53.206;-6.106;2023-05-21T07:54:18;102461.78;;;19.91;59.61
58690;BME280;44470;53.206;-6.106;2023-05-21T07:56:44;102462.72;;;19.98;59.86
58690;BME280;44470;53.206;-6.106;2023-05-21T07:59:20;102456.47;;;19.96;59.32
58690;BME280;44470;53.206;-6.106;2023-05-21T08:01:46;102448.34;;;19.86;59.56
58690;BME280;44470;53.206;-6.106;2023-05-21T08:04:11;102466.28;;;19.97;59.84
58690;BME280;44470;53.206;-6.106;2023-05-21T08:06:37;102466.25;;;19.94;59.82
58690;BME280;44470;53.206;-6.106;2023-05-21T08:09:03;102462.66;;;19.92;60.02
58690;BME280;44470;53.206;-6.106;2023-05-21T08:11:31;102474.28;;;19.95;60.21
58690;BME280;44470;53.206;-6.106;2023-05-21T08:13:56;102471.63;;;19.97;60.38
58690;BME280;44470;53.206;-6.106;2023-05-21T08:16:22;102476.06;;;19.98;60.09
58690;BME280;44470;53.206;-6.106;2023-05-21T08:18:49;102473.41;;;19.98;60.01
58690;BME280;44470;53.206;-6.106;2023-05-21T08:21:15;102480.53;;;19.99;60.00
58690;BME280;44470;53.206;-6.106;2023-05-21T08:23:41;102477.91;;;20.00;60.39
58690;BME280;44470;53.206;-6.106;2023-05-21T08:26:07;102485.91;;;20.02;60.00
58690;BME280;44470;53.206;-6.106;2023-05-21T08:28:38;102476.09;;;19.96;60.20
58690;BME280;44470;53.206;-6.106;2023-05-21T08:31:03;102480.56;;;20.02;60.32
58690;BME280;44470;53.206;-6.106;2023-05-21T08:33:34;102471.56;;;19.91;60.50
58690;BME280;44470;53.206;-6.106;2023-05-21T08:36:04;102473.44;;;20.01;60.15
58690;BME280;44470;53.206;-6.106;2023-05-21T08:38:35;102472.53;;;20.02;60.32
58690;BME280;44470;53.206;-6.106;2023-05-21T08:41:21;102476.09;;;20.01;60.49
58690;BME280;44470;53.206;-6.106;2023-05-21T08:43:54;102469.84;;;19.99;60.42
58690;BME280;44470;53.206;-6.106;2023-05-21T08:46:22;102454.69;;;19.95;60.47
58690;BME280;44470;53.206;-6.106;2023-05-21T08:48:50;102474.34;;;20.01;60.24
58690;BME280;44470;53.206;-6.106;2023-05-21T08:51:16;102478.81;;;20.02;60.49
58690;BME280;44470;53.206;-6.106;2023-05-21T08:53:46;102470.75;;;20.01;60.54
58690;BME280;44470;53.206;-6.106;2023-05-21T08:56:16;102480.56;;;20.02;60.24
58690;BME280;44470;53.206;-6.106;2023-05-21T08:58:50;102473.44;;;19.99;60.40
58690;BME280;44470;53.206;-6.106;2023-05-21T09:01:18;102479.69;;;20.01;60.45
58690;BME280;44470;53.206;-6.106;2023-05-21T09:03:49;102474.31;;;19.98;60.52
58690;BME280;44470;53.206;-6.106;2023-05-21T09:06:16;102466.25;;;19.94;60.36
58690;BME280;44470;53.206;-6.106;2023-05-21T09:08:44;102470.75;;;19.99;60.21
58690;BME280;44470;53.206;-6.106;2023-05-21T09:11:23;102476.13;;;20.02;60.60
58690;BME280;44470;53.206;-6.106;2023-05-21T09:13:54;102469.88;;;20.02;60.72
58690;BME280;44470;53.206;-6.106;2023-05-21T09:16:36;102474.31;;;20.03;60.26
58690;BME280;44470;53.206;-6.106;2023-05-21T09:19:01;102479.69;;;20.03;60.39
58690;BME280;44470;53.206;-6.106;2023-05-21T09:21:31;102478.78;;;20.01;60.56
58690;BME280;44470;53.206;-6.106;2023-05-21T09:24:02;102481.47;;;20.02;60.49
58690;BME280;44470;53.206;-6.106;2023-05-21T09:26:28;102481.47;;;20.04;60.70
58690;BME280;44470;53.206;-6.106;2023-05-21T09:28:59;102473.44;;;20.04;60.33
58690;BME280;44470;53.206;-6.106;2023-05-21T09:31:25;102462.72;;;19.98;60.51
58690;BME280;44470;53.206;-6.106;2023-05-21T09:33:51;102480.59;;;20.05;60.42
58690;BME280;44470;53.206;-6.106;2023-05-21T09:36:19;102468.06;;;19.96;60.59
58690;BME280;44470;53.206;-6.106;2023-05-21T09:38:47;102481.44;;;20.01;60.45
58690;BME280;44470;53.206;-6.106;2023-05-21T09:41:13;102483.25;;;20.05;60.32
58690;BME280;44470;53.206;-6.106;2023-05-21T09:43:43;102472.53;;;20.00;60.48
58690;BME280;44470;53.206;-6.106;2023-05-21T09:46:09;102478.78;;;20.01;60.69
58690;BME280;44470;53.206;-6.106;2023-05-21T09:48:37;102484.16;;;20.07;60.40
58690;BME280;44470;53.206;-6.106;2023-05-21T09:53:42;102480.59;;;20.05;60.79
58690;BME280;44470;53.206;-6.106;2023-05-21T09:56:07;102483.28;;;20.08;60.47
58690;BME280;44470;53.206;-6.106;2023-05-21T09:58:33;102479.72;;;20.09;60.34
58690;BME280;44470;53.206;-6.106;2023-05-21T10:00:59;102474.31;;;20.03;60.44
58690;BME280;44470;53.206;-6.106;2023-05-21T10:03:26;102487.72;;;20.09;60.51
58690;BME280;44470;53.206;-6.106;2023-05-21T10:05:53;102473.44;;;19.99;60.59
58690;BME280;44470;53.206;-6.106;2023-05-21T10:08:21;102493.06;;;20.06;60.60
58690;BME280;44470;53.206;-6.106;2023-05-21T10:10:49;102476.09;;;20.01;60.68
58690;BME280;44470;53.206;-6.106;2023-05-21T10:13:17;102494.84;;;20.07;60.80
58690;BME280;44470;53.206;-6.106;2023-05-21T10:15:45;102491.28;;;20.08;60.79
58690;BME280;44470;53.206;-6.106;2023-05-21T10:18:12;102500.22;;;20.10;60.96
58690;BME280;44470;53.206;-6.106;2023-05-21T10:20:38;102481.47;;;20.02;60.71
58690;BME280;44470;53.206;-6.106;2023-05-21T10:23:04;102497.53;;;20.10;60.83
58690;BME280;44470;53.206;-6.106;2023-05-21T10:25:30;102489.53;;;20.10;61.10
58690;BME280;44470;53.206;-6.106;2023-05-21T10:27:56;102484.19;;;20.09;60.72
58690;BME280;44470;53.206;-6.106;2023-05-21T10:30:22;102488.63;;;20.11;60.94
58690;BME280;44470;53.206;-6.106;2023-05-21T10:32:49;102494.91;;;20.12;60.92
58690;BME280;44470;53.206;-6.106;2023-05-21T10:35:15;102491.31;;;20.11;61.41
58690;BME280;44470;53.206;-6.106;2023-05-21T10:37:45;102479.72;;;20.09;61.32
58690;BME280;44470;53.206;-6.106;2023-05-21T10:40:11;102495.78;;;20.12;61.43
58690;BME280;44470;53.206;-6.106;2023-05-21T10:43:07;102473.44;;;20.04;61.70
58690;BME280;44470;53.206;-6.106;2023-05-21T10:59:09;102488.66;;;20.14;62.22
58690;BME280;44470;53.206;-6.106;2023-05-21T11:01:38;102486.00;;;20.14;62.13
58690;BME280;44470;53.206;-6.106;2023-05-21T11:04:05;102471.75;;;20.14;62.49
58690;BME280;44470;53.206;-6.106;2023-05-21T11:06:31;102469.94;;;20.14;62.54
58690;BME280;44470;53.206;-6.106;2023-05-21T11:09:10;102468.16;;;20.13;61.94
58690;BME280;44470;53.206;-6.106;2023-05-21T11:11:45;102466.38;;;20.12;62.39
58690;BME280;44470;53.206;-6.106;2023-05-21T11:14:38;102441.34;;;20.01;62.07
58690;BME280;44470;53.206;-6.106;2023-05-21T11:19:43;102455.66;;;20.09;62.18
58690;BME280;44470;53.206;-6.106;2023-05-21T11:22:24;102462.81;;;20.13;62.08
58690;BME280;44470;53.206;-6.106;2023-05-21T11:24:50;102435.13;;;20.00;61.46
58690;BME280;44470;53.206;-6.106;2023-05-21T11:27:41;102461.94;;;20.14;61.94
58690;BME280;44470;53.206;-6.106;2023-05-21T11:30:16;102458.41;;;20.15;61.69
58690;BME280;44470;53.206;-6.106;2023-05-21T11:38:09;102461.03;;;20.12;61.59
58690;BME280;44470;53.206;-6.106;2023-05-21T11:40:35;102457.47;;;20.12;61.94
58690;BME280;44470;53.206;-6.106;2023-05-21T11:43:00;102457.47;;;20.12;61.85
58690;BME280;44470;53.206;-6.106;2023-05-21T11:45:31;102463.69;;;20.12;61.70
58690;BME280;44470;53.206;-6.106;2023-05-21T11:47:57;102454.78;;;20.13;61.76
58690;BME280;44470;53.206;-6.106;2023-05-21T11:50:23;102458.34;;;20.12;61.77
58690;BME280;44470;53.206;-6.106;2023-05-21T11:52:49;102463.72;;;20.14;61.50
58690;BME280;44470;53.206;-6.106;2023-05-21T11:55:20;102464.59;;;20.14;61.46
58690;BME280;44470;53.206;-6.106;2023-05-21T11:57:46;102457.53;;;20.16;61.56
58690;BME280;44470;53.206;-6.106;2023-05-21T12:00:15;102443.16;;;20.05;61.36
58690;BME280;44470;53.206;-6.106;2023-05-21T12:02:49;102453.88;;;20.11;61.27
58690;BME280;44470;53.206;-6.106;2023-05-21T12:05:16;102464.59;;;20.14;61.24
58690;BME280;44470;53.206;-6.106;2023-05-21T12:07:41;102454.78;;;20.13;61.26
58690;BME280;44470;53.206;-6.106;2023-05-21T12:10:07;102461.06;;;20.15;61.01
58690;BME280;44470;53.206;-6.106;2023-05-21T12:12:33;102463.75;;;20.15;61.57
58690;BME280;44470;53.206;-6.106;2023-05-21T12:14:59;102461.06;;;20.15;61.05
58690;BME280;44470;53.206;-6.106;2023-05-21T12:17:25;102463.75;;;20.17;61.16
58690;BME280;44470;53.206;-6.106;2023-05-21T12:19:53;102452.09;;;20.10;61.30
58690;BME280;44470;53.206;-6.106;2023-05-21T12:22:20;102452.16;;;20.16;60.85
58690;BME280;44470;53.206;-6.106;2023-05-21T12:24:46;102460.19;;;20.16;61.04
58690;BME280;44470;53.206;-6.106;2023-05-21T12:27:13;102459.31;;;20.17;60.56
58690;BME280;44470;53.206;-6.106;2023-05-21T12:29:47;102461.06;;;20.15;60.64
58690;BME280;44470;53.206;-6.106;2023-05-21T12:32:14;102436.91;;;20.03;60.46
58690;BME280;44470;53.206;-6.106;2023-05-21T12:34:51;102455.66;;;20.08;60.54
58690;BME280;44470;53.206;-6.106;2023-05-21T12:39:51;102446.69;;;19.98;59.99
58690;BME280;44470;53.206;-6.106;2023-05-21T12:42:28;102455.59;;;19.97;60.25
58690;BME280;44470;53.206;-6.106;2023-05-21T12:44:59;102457.34;;;19.95;59.95
58690;BME280;44470;53.206;-6.106;2023-05-21T12:47:26;102468.94;;;19.95;59.86
58690;BME280;44470;53.206;-6.106;2023-05-21T12:49:59;102441.19;;;19.79;60.13
58690;BME280;44470;53.206;-6.106;2023-05-21T12:52:26;102448.34;;;19.86;60.18
58690;BME280;44470;53.206;-6.106;2023-05-21T12:54:53;102466.25;;;19.94;60.38
58690;BME280;44470;53.206;-6.106;2023-05-21T12:57:22;102460.91;;;19.94;60.21
58690;BME280;44470;53.206;-6.106;2023-05-21T13:03:40;102456.38;;;19.89;60.15
58690;BME280;44470;53.206;-6.106;2023-05-21T13:06:07;102451.88;;;19.84;60.13
58690;BME280;44470;53.206;-6.106;2023-05-21T13:08:33;102439.41;;;19.81;60.05
58690;BME280;44470;53.206;-6.106;2023-05-21T13:11:20;102451.94;;;19.88;60.15
58690;BME280;44470;53.206;-6.106;2023-05-21T13:13:46;102456.38;;;19.89;60.52
58690;BME280;44470;53.206;-6.106;2023-05-21T13:16:11;102453.78;;;19.91;60.19
58690;BME280;44470;53.206;-6.106;2023-05-21T13:18:37;102443.88;;;19.84;59.95